createdAt,value
2023-05-08T00:00:26.665Z,33.14
2023-05-08T00:01:26.670Z,30.61
2023-05-08T00:02:26.742Z,28.84
2023-05-08T00:03:27.036Z,30.02
2023-05-08T00:04:26.726Z,31.29
2023-05-08T00:05:26.690Z,30.74
2023-05-08T00:06:27.051Z,26.74
2023-05-08T00:07:26.725Z,29.35
2023-05-08T00:08:26.755Z,29.72
2023-05-08T00:09:26.731Z,30.02
2023-05-08T00:10:26.762Z,30.48
2023-05-08T00:11:26.774Z,28.89
2023-05-08T00:12:26.728Z,29.11
2023-05-08T00:13:26.791Z,29.70
2023-05-08T00:14:26.754Z,28.20
2023-05-08T00:15:26.798Z,26.42
2023-05-08T00:16:27.062Z,27.10
2023-05-08T00:17:26.803Z,27.08
2023-05-08T00:18:26.800Z,28.06
2023-05-08T00:19:26.817Z,24.95
2023-05-08T00:20:26.841Z,28.47
2023-05-08T00:21:26.808Z,30.93
2023-05-08T00:22:26.858Z,29.12
2023-05-08T00:23:26.817Z,32.19
2023-05-08T00:24:26.832Z,29.05
2023-05-08T00:25:26.872Z,27.48
2023-05-08T00:26:27.007Z,25.04
2023-05-08T00:27:26.846Z,27.48
2023-05-08T00:28:26.916Z,28.88
2023-05-08T00:29:26.899Z,28.53
2023-05-08T00:30:26.870Z,27.09
2023-05-08T00:31:26.950Z,26.95
2023-05-08T00:32:27.160Z,26.55
2023-05-08T00:33:26.887Z,26.66
2023-05-08T00:34:26.893Z,28.55
2023-05-08T00:35:26.906Z,27.46
2023-05-08T00:36:26.899Z,27.30
2023-05-08T00:37:26.959Z,27.15
2023-05-08T00:38:26.998Z,25.82
2023-05-08T00:39:26.951Z,27.61
2023-05-08T00:40:26.966Z,27.74
2023-05-08T00:41:26.972Z,27.66
2023-05-08T00:42:27.027Z,29.37
2023-05-08T00:43:26.989Z,29.40
2023-05-08T00:44:26.992Z,31.43
2023-05-08T00:45:27.035Z,29.60
2023-05-08T00:46:27.069Z,31.73
2023-05-08T00:47:27.113Z,33.81
2023-05-08T00:48:27.022Z,31.29
2023-05-08T00:49:27.048Z,32.09
2023-05-08T00:50:27.031Z,31.00
2023-05-08T00:51:27.084Z,29.33
2023-05-08T00:52:27.071Z,29.22
2023-05-08T00:53:27.097Z,27.49
2023-05-08T00:54:27.079Z,28.32
2023-05-08T00:55:27.091Z,29.74
2023-05-08T00:56:27.097Z,28.23
2023-05-08T00:57:27.117Z,27.49
2023-05-08T00:58:27.132Z,27.57
2023-05-08T00:59:27.138Z,28.37
2023-05-08T01:00:27.133Z,28.01
2023-05-08T01:01:27.242Z,28.09
2023-05-08T01:02:27.261Z,31.14
2023-05-08T01:03:27.226Z,30.80
2023-05-08T01:04:27.152Z,32.04
2023-05-08T01:05:27.233Z,31.51
2023-05-08T01:06:27.255Z,31.15
2023-05-08T01:07:27.247Z,30.03
2023-05-08T01:08:27.227Z,30.38
2023-05-08T01:09:27.221Z,29.30
2023-05-08T01:10:27.238Z,32.66
2023-05-08T01:11:27.265Z,32.53
2023-05-08T01:12:27.252Z,33.14
2023-05-08T01:13:27.329Z,31.35
2023-05-08T01:14:27.295Z,31.37
2023-05-08T01:15:27.302Z,30.35
2023-05-08T01:16:27.421Z,31.74
2023-05-08T01:17:27.332Z,29.25
2023-05-08T01:18:27.315Z,28.38
2023-05-08T01:19:27.323Z,27.65
2023-05-08T01:20:27.341Z,27.32
2023-05-08T01:21:27.347Z,28.17
2023-05-08T01:22:27.378Z,27.56
2023-05-08T01:23:27.347Z,30.58
2023-05-08T01:24:27.373Z,27.23
2023-05-08T01:25:27.370Z,30.39
2023-05-08T01:26:27.390Z,30.57
2023-05-08T01:27:27.420Z,29.29
2023-05-08T01:28:27.422Z,31.12
2023-05-08T01:29:27.421Z,29.78
2023-05-08T01:30:27.444Z,27.80
2023-05-08T01:31:27.435Z,29.83
2023-05-08T01:32:27.486Z,27.57
2023-05-08T01:33:27.462Z,28.62
2023-05-08T01:34:27.470Z,29.95
2023-05-08T01:35:27.504Z,31.98
2023-05-08T01:36:27.544Z,29.83
2023-05-08T01:37:27.527Z,29.44
2023-05-08T01:38:27.498Z,30.75
2023-05-08T01:39:27.497Z,31.75
2023-05-08T01:40:27.559Z,29.04
2023-05-08T01:41:27.555Z,30.23
2023-05-08T01:42:27.558Z,29.52
2023-05-08T01:43:27.603Z,29.18
2023-05-08T01:44:27.587Z,28.72
2023-05-08T01:45:27.609Z,28.25
2023-05-08T01:46:28.095Z,29.42
2023-05-08T01:47:27.616Z,26.44
2023-05-08T01:48:27.600Z,31.35
2023-05-08T01:49:27.655Z,30.54
2023-05-08T01:50:27.665Z,28.03
2023-05-08T01:51:28.063Z,29.76
2023-05-08T01:52:27.675Z,30.05
2023-05-08T01:53:27.678Z,30.01
2023-05-08T01:54:27.681Z,29.25
2023-05-08T01:55:27.671Z,27.07
2023-05-08T01:56:27.743Z,26.93
2023-05-08T01:57:27.739Z,29.95
2023-05-08T01:58:27.790Z,26.65
2023-05-08T01:59:27.801Z,29.77
2023-05-08T02:00:27.825Z,27.88
2023-05-08T02:01:27.743Z,28.42
2023-05-08T02:02:27.845Z,26.67
2023-05-08T02:03:27.907Z,26.72
2023-05-08T02:04:27.869Z,27.77
2023-05-08T02:05:27.816Z,26.23
2023-05-08T02:06:27.833Z,25.57
2023-05-08T02:07:27.828Z,30.34
2023-05-08T02:08:27.967Z,28.75
2023-05-08T02:09:27.906Z,26.50
2023-05-08T02:10:27.847Z,29.12
2023-05-08T02:11:28.078Z,27.07
2023-05-08T02:12:27.911Z,28.53
2023-05-08T02:13:27.971Z,28.43
2023-05-08T02:14:27.910Z,28.78
2023-05-08T02:15:27.944Z,30.45
2023-05-08T02:16:27.994Z,28.37
2023-05-08T02:17:27.961Z,31.39
2023-05-08T02:18:27.982Z,30.00
2023-05-08T02:19:27.945Z,30.90
2023-05-08T02:20:27.971Z,30.54
2023-05-08T02:21:28.005Z,29.72
2023-05-08T02:22:27.980Z,28.72
2023-05-08T02:23:28.064Z,29.61
2023-05-08T02:24:28.042Z,28.08
2023-05-08T02:25:28.079Z,26.51
2023-05-08T02:26:28.061Z,29.50
2023-05-08T02:27:28.098Z,31.70
2023-05-08T02:28:28.094Z,28.31
2023-05-08T02:29:28.120Z,31.22
2023-05-08T02:30:28.113Z,31.82
2023-05-08T02:31:28.150Z,31.59
2023-05-08T02:32:28.173Z,30.94
2023-05-08T02:33:28.159Z,29.60
2023-05-08T02:34:28.171Z,30.12
2023-05-08T02:35:28.173Z,30.21
2023-05-08T02:36:28.602Z,28.92
2023-05-08T02:37:28.195Z,29.38
2023-05-08T02:38:28.209Z,32.12
2023-05-08T02:39:28.216Z,31.02
2023-05-08T02:40:28.219Z,28.07
2023-05-08T02:41:28.203Z,29.34
2023-05-08T02:42:28.236Z,29.45
2023-05-08T02:43:28.248Z,27.42
2023-05-08T02:44:28.232Z,29.63
2023-05-08T02:45:28.258Z,29.02
2023-05-08T02:46:28.283Z,28.22
2023-05-08T02:47:28.265Z,29.90
2023-05-08T02:48:28.279Z,29.07
2023-05-08T02:49:28.314Z,30.14
2023-05-08T02:50:28.356Z,28.82
2023-05-08T02:51:28.314Z,30.64
2023-05-08T02:52:28.362Z,31.16
2023-05-08T02:53:28.362Z,30.77
2023-05-08T02:54:28.371Z,30.42
2023-05-08T02:55:28.331Z,29.80
2023-05-08T02:56:28.408Z,32.70
2023-05-08T02:57:28.384Z,29.05
2023-05-08T02:58:28.416Z,30.08
2023-05-08T02:59:28.391Z,28.68
2023-05-08T03:00:28.423Z,29.91
2023-05-08T03:01:28.429Z,30.25
2023-05-08T03:02:28.518Z,30.54
2023-05-08T03:03:28.550Z,32.24
2023-05-08T03:04:28.479Z,32.02
2023-05-08T03:05:28.505Z,30.55
2023-05-08T03:06:28.485Z,27.96
2023-05-08T03:07:28.489Z,29.18
2023-05-08T03:08:28.511Z,28.93
2023-05-08T03:09:28.505Z,31.23
2023-05-08T03:10:28.529Z,32.24
2023-05-08T03:11:28.529Z,32.54
2023-05-08T03:12:28.673Z,30.12
2023-05-08T03:13:28.554Z,31.02
2023-05-08T03:14:28.543Z,30.15
2023-05-08T03:15:28.640Z,33.16
2023-05-08T03:16:28.655Z,30.87
2023-05-08T03:17:28.619Z,29.87
2023-05-08T03:18:28.637Z,29.97
2023-05-08T03:19:28.643Z,30.94
2023-05-08T03:20:28.679Z,29.64
2023-05-08T03:21:28.674Z,31.09
2023-05-08T03:22:29.094Z,34.08
2023-05-08T03:23:28.677Z,30.22
2023-05-08T03:24:28.664Z,31.33
2023-05-08T03:25:28.676Z,31.34
2023-05-08T03:26:28.696Z,29.48
2023-05-08T03:27:28.752Z,27.69
2023-05-08T03:28:28.694Z,28.50
2023-05-08T03:29:28.743Z,29.73
2023-05-08T03:30:28.741Z,31.15
2023-05-08T03:31:28.763Z,30.74
2023-05-08T03:32:28.874Z,29.40
2023-05-08T03:33:28.760Z,31.70
2023-05-08T03:34:28.782Z,29.58
2023-05-08T03:35:28.802Z,29.63
2023-05-08T03:36:28.829Z,28.17
2023-05-08T03:37:29.119Z,32.20
2023-05-08T03:38:28.797Z,30.84
2023-05-08T03:39:28.862Z,29.68
2023-05-08T03:40:28.836Z,29.96
2023-05-08T03:41:28.858Z,32.65
2023-05-08T03:42:28.861Z,32.87
2023-05-08T03:43:29.080Z,30.12
2023-05-08T03:44:28.893Z,33.79
2023-05-08T03:45:28.922Z,30.14
2023-05-08T03:46:28.977Z,29.97
2023-05-08T03:47:28.983Z,30.46
2023-05-08T03:48:28.960Z,30.68
2023-05-08T03:49:28.978Z,31.76
2023-05-08T03:50:29.001Z,31.23
2023-05-08T03:51:29.001Z,30.71
2023-05-08T03:52:29.057Z,31.47
2023-05-08T03:53:29.062Z,32.51
2023-05-08T03:54:29.073Z,34.81
2023-05-08T03:55:29.103Z,31.77
2023-05-08T03:56:29.056Z,32.96
2023-05-08T03:57:29.110Z,29.16
2023-05-08T03:58:29.061Z,31.63
2023-05-08T03:59:29.124Z,31.07
2023-05-08T04:00:29.141Z,34.44
2023-05-08T04:01:29.141Z,31.87
2023-05-08T04:02:29.337Z,31.53
2023-05-08T04:03:29.245Z,31.67
2023-05-08T04:04:29.142Z,31.45
2023-05-08T04:05:29.187Z,32.17
2023-05-08T04:06:33.009Z,29.76
2023-05-08T04:07:30.207Z,30.09
2023-05-08T04:08:29.191Z,30.25
2023-05-08T04:09:29.200Z,30.76
2023-05-08T04:10:29.141Z,31.51
2023-05-08T04:11:29.142Z,34.42
2023-05-08T04:12:29.227Z,29.94
2023-05-08T04:13:29.163Z,33.78
2023-05-08T04:14:29.140Z,32.04
2023-05-08T04:15:29.143Z,31.60
2023-05-08T04:16:29.236Z,28.17
2023-05-08T04:17:29.221Z,30.36
2023-05-08T04:18:29.168Z,32.72
2023-05-08T04:19:29.150Z,32.31
2023-05-08T04:20:29.093Z,32.39
2023-05-08T04:21:29.085Z,31.05
2023-05-08T04:22:29.099Z,30.15
2023-05-08T04:23:29.073Z,32.58
2023-05-08T04:24:29.034Z,33.55
2023-05-08T04:25:29.046Z,33.73
2023-05-08T04:26:29.126Z,31.36
2023-05-08T04:27:29.077Z,32.17
2023-05-08T04:28:29.057Z,30.45
2023-05-08T04:29:29.042Z,29.89
2023-05-08T04:30:29.017Z,32.83
2023-05-08T04:31:29.076Z,30.08
2023-05-08T04:32:29.227Z,32.10
2023-05-08T04:33:29.081Z,33.71
2023-05-08T04:34:29.081Z,31.64
2023-05-08T04:35:29.103Z,31.79
2023-05-08T04:36:29.096Z,33.47
2023-05-08T04:37:29.182Z,31.38
2023-05-08T04:38:29.157Z,31.62
2023-05-08T04:39:29.185Z,32.53
2023-05-08T04:40:29.196Z,30.56
2023-05-08T04:41:29.299Z,31.58
2023-05-08T04:42:29.199Z,32.07
2023-05-08T04:43:29.250Z,32.28
2023-05-08T04:44:29.249Z,31.51
2023-05-08T04:45:29.237Z,32.55
2023-05-08T04:46:29.335Z,34.14
2023-05-08T04:47:29.682Z,32.89
2023-05-08T04:48:29.305Z,32.02
2023-05-08T04:49:29.320Z,31.33
2023-05-08T04:50:29.319Z,33.75
2023-05-08T04:51:29.323Z,33.46
2023-05-08T04:52:29.352Z,32.51
2023-05-08T04:53:29.358Z,31.50
2023-05-08T04:54:29.369Z,33.55
2023-05-08T04:55:29.422Z,34.73
2023-05-08T04:56:29.407Z,31.44
2023-05-08T04:57:29.404Z,32.89
2023-05-08T04:58:29.436Z,32.67
2023-05-08T04:59:29.451Z,31.00
2023-05-08T05:00:29.472Z,31.50
2023-05-08T05:01:29.471Z,32.21
2023-05-08T05:02:29.743Z,31.57
2023-05-08T05:03:29.539Z,33.07
2023-05-08T05:04:29.493Z,34.14
2023-05-08T05:05:29.495Z,34.09
2023-05-08T05:06:29.524Z,35.01
2023-05-08T05:07:29.577Z,32.34
2023-05-08T05:08:29.597Z,31.31
2023-05-08T05:09:29.602Z,33.06
2023-05-08T05:10:29.612Z,34.53
2023-05-08T05:11:29.594Z,33.78
2023-05-08T05:12:29.618Z,35.27
2023-05-08T05:13:29.746Z,35.81
2023-05-08T05:14:29.690Z,33.29
2023-05-08T05:15:29.655Z,33.85
2023-05-08T05:16:29.785Z,34.76
2023-05-08T05:17:29.746Z,34.19
2023-05-08T05:18:30.672Z,32.66
2023-05-08T05:19:29.756Z,33.69
2023-05-08T05:20:29.770Z,33.03
2023-05-08T05:21:29.793Z,31.41
2023-05-08T05:22:29.769Z,35.04
2023-05-08T05:23:29.803Z,32.65
2023-05-08T05:24:29.823Z,33.97
2023-05-08T05:25:29.849Z,34.11
2023-05-08T05:26:29.896Z,33.94
2023-05-08T05:27:29.878Z,34.83
2023-05-08T05:28:29.889Z,36.67
2023-05-08T05:29:29.945Z,36.28
2023-05-08T05:30:29.977Z,34.32
2023-05-08T05:31:30.059Z,36.51
2023-05-08T05:32:30.195Z,35.70
2023-05-08T05:33:29.992Z,37.45
2023-05-08T05:34:30.010Z,32.74
2023-05-08T05:35:30.093Z,38.80
2023-05-08T05:36:30.052Z,36.71
2023-05-08T05:37:30.082Z,38.33
2023-05-08T05:38:30.091Z,38.11
2023-05-08T05:39:30.103Z,37.72
2023-05-08T05:40:30.143Z,37.42
2023-05-08T05:41:30.148Z,39.05
2023-05-08T05:42:30.186Z,35.96
2023-05-08T05:43:30.141Z,36.72
2023-05-08T05:44:30.195Z,37.66
2023-05-08T05:45:33.209Z,34.20
2023-05-08T05:46:30.236Z,37.35
2023-05-08T05:47:30.231Z,34.50
2023-05-08T05:48:30.205Z,35.81
2023-05-08T05:49:30.199Z,35.20
2023-05-08T05:50:30.169Z,35.61
2023-05-08T05:51:30.165Z,35.62
2023-05-08T05:52:30.178Z,39.44
2023-05-08T05:53:30.186Z,39.27
2023-05-08T05:54:30.108Z,37.18
2023-05-08T05:55:30.150Z,40.48
2023-05-08T05:56:30.133Z,39.35
2023-05-08T05:57:30.108Z,36.73
2023-05-08T05:58:30.116Z,38.02
2023-05-08T05:59:30.079Z,36.45
2023-05-08T06:00:30.138Z,37.40
2023-05-08T06:01:30.098Z,37.44
2023-05-08T06:02:30.261Z,36.26
2023-05-08T06:03:30.183Z,37.14
2023-05-08T06:04:30.199Z,43.08
2023-05-08T06:05:30.064Z,46.92
2023-05-08T06:06:30.068Z,49.45
2023-05-08T06:07:30.068Z,55.72
2023-05-08T06:08:30.084Z,51.34
2023-05-08T06:09:30.009Z,56.38
2023-05-08T06:10:30.035Z,62.83
2023-05-08T06:11:30.045Z,66.52
2023-05-08T06:12:30.021Z,63.91
2023-05-08T06:13:30.081Z,63.68
2023-05-08T06:14:30.044Z,62.82
2023-05-08T06:15:29.975Z,65.10
2023-05-08T06:16:30.041Z,71.97
2023-05-08T06:17:29.995Z,75.34
2023-05-08T06:18:29.980Z,74.29
2023-05-08T06:19:29.974Z,80.96
2023-05-08T06:20:29.952Z,74.74
2023-05-08T06:21:29.914Z,82.56
2023-05-08T06:22:29.984Z,86.76
2023-05-08T06:23:29.981Z,88.54
2023-05-08T06:24:30.170Z,88.66
2023-05-08T06:25:29.926Z,93.11
2023-05-08T06:26:29.884Z,96.39
2023-05-08T06:27:29.902Z,97.02
2023-05-08T06:28:29.865Z,91.13
2023-05-08T06:29:29.887Z,93.52
2023-05-08T06:30:29.884Z,93.13
2023-05-08T06:31:29.912Z,94.36
2023-05-08T06:32:29.971Z,98.93
2023-05-08T06:33:29.889Z,101.29
2023-05-08T06:34:29.866Z,102.76
2023-05-08T06:35:29.852Z,103.92
2023-05-08T06:36:29.884Z,110.75
2023-05-08T06:37:29.879Z,116.12
2023-05-08T06:38:29.828Z,118.00
2023-05-08T06:39:29.817Z,113.70
2023-05-08T06:40:29.829Z,120.07
2023-05-08T06:41:29.813Z,120.51
2023-05-08T06:42:29.805Z,118.13
2023-05-08T06:43:29.820Z,109.76
2023-05-08T06:44:29.797Z,121.97
2023-05-08T06:45:29.790Z,117.97
2023-05-08T06:46:29.815Z,117.46
2023-05-08T06:47:29.780Z,122.95
2023-05-08T06:48:29.767Z,118.00
2023-05-08T06:49:29.802Z,115.71
2023-05-08T06:50:29.829Z,125.31
2023-05-08T06:51:29.906Z,127.54
2023-05-08T06:52:30.222Z,126.08
2023-05-08T06:53:30.008Z,123.15
2023-05-08T06:54:30.051Z,126.30
2023-05-08T06:55:30.090Z,127.27
2023-05-08T06:56:30.172Z,119.06
2023-05-08T06:57:30.251Z,129.55
2023-05-08T06:58:30.253Z,125.52
2023-05-08T06:59:30.335Z,126.66
2023-05-08T07:00:30.358Z,128.59
2023-05-08T07:01:30.504Z,135.74
2023-05-08T07:02:30.532Z,125.73
2023-05-08T07:03:30.568Z,133.97
2023-05-08T07:04:32.202Z,136.01
2023-05-08T07:05:30.633Z,131.72
2023-05-08T07:06:30.680Z,126.42
2023-05-08T07:07:30.728Z,128.99
2023-05-08T07:08:30.806Z,128.99
2023-05-08T07:09:30.837Z,130.83
2023-05-08T07:10:30.917Z,129.01
2023-05-08T07:11:30.937Z,126.73
2023-05-08T07:12:31.030Z,128.22
2023-05-08T07:13:31.139Z,127.28
2023-05-08T07:14:31.107Z,136.32
2023-05-08T07:15:31.345Z,130.56
2023-05-08T07:16:31.263Z,141.35
2023-05-08T07:17:31.288Z,137.76
2023-05-08T07:18:31.324Z,140.28
2023-05-08T07:19:31.760Z,143.80
2023-05-08T07:20:31.460Z,143.84
2023-05-08T07:21:31.495Z,139.05
2023-05-08T07:22:31.826Z,132.60
2023-05-08T07:23:31.634Z,145.11
2023-05-08T07:24:31.663Z,149.05
2023-05-08T07:25:31.742Z,152.30
2023-05-08T07:26:31.778Z,141.29
2023-05-08T07:27:31.799Z,144.81
2023-05-08T07:28:31.899Z,149.95
2023-05-08T07:29:31.917Z,149.83
2023-05-08T07:30:32.019Z,148.44
2023-05-08T07:31:32.112Z,146.48
2023-05-08T07:32:32.126Z,143.94
2023-05-08T07:33:32.168Z,141.61
2023-05-08T07:34:32.213Z,154.80
2023-05-08T07:35:32.316Z,133.62
2023-05-08T07:36:32.320Z,115.90
2023-05-08T07:37:32.360Z,118.40
2023-05-08T07:38:32.412Z,114.75
2023-05-08T07:39:32.477Z,114.89
2023-05-08T07:40:32.564Z,104.85
2023-05-08T07:41:32.650Z,104.54
2023-05-08T07:42:32.769Z,110.59
2023-05-08T07:43:32.707Z,108.21
2023-05-08T07:44:40.321Z,106.53
2023-05-08T07:45:33.745Z,106.59
2023-05-08T07:46:32.786Z,107.53
2023-05-08T07:47:32.791Z,101.91
2023-05-08T07:48:32.746Z,108.98
2023-05-08T07:49:32.773Z,105.15
2023-05-08T07:50:32.711Z,106.90
2023-05-08T07:51:32.727Z,107.38
2023-05-08T07:52:32.730Z,106.12
2023-05-08T07:53:32.693Z,110.36
2023-05-08T07:54:32.674Z,105.38
2023-05-08T07:55:32.754Z,111.88
2023-05-08T07:56:32.770Z,107.24
2023-05-08T07:57:32.876Z,111.77
2023-05-08T07:58:32.918Z,105.98
2023-05-08T07:59:32.978Z,106.23
2023-05-08T08:00:33.080Z,106.01
2023-05-08T08:01:33.092Z,101.70
2023-05-08T08:02:33.255Z,102.52
2023-05-08T08:03:33.296Z,98.10
2023-05-08T08:04:33.318Z,106.39
2023-05-08T08:05:33.252Z,101.96
2023-05-08T08:06:33.291Z,100.61
2023-05-08T08:07:33.749Z,106.71
2023-05-08T08:08:33.310Z,108.11
2023-05-08T08:09:33.325Z,101.14
2023-05-08T08:10:33.333Z,93.87
2023-05-08T08:11:33.324Z,106.80
2023-05-08T08:12:33.369Z,115.24
2023-05-08T08:13:33.842Z,113.45
2023-05-08T08:14:33.403Z,109.62
2023-05-08T08:15:33.325Z,107.61
2023-05-08T08:16:33.450Z,119.61
2023-05-08T08:17:33.386Z,111.25
2023-05-08T08:18:33.341Z,113.39
2023-05-08T08:19:33.346Z,111.89
2023-05-08T08:20:33.354Z,113.44
2023-05-08T08:21:33.371Z,114.62
2023-05-08T08:22:33.370Z,109.05
2023-05-08T08:23:33.817Z,108.44
2023-05-08T08:24:33.399Z,107.76
2023-05-08T08:25:33.407Z,113.95
2023-05-08T08:26:33.368Z,121.43
2023-05-08T08:27:33.559Z,129.81
2023-05-08T08:28:33.441Z,128.05
2023-05-08T08:29:33.425Z,120.02
2023-05-08T08:30:33.415Z,118.97
2023-05-08T08:31:33.566Z,118.77
2023-05-08T08:32:33.523Z,127.23
2023-05-08T08:33:33.447Z,124.73
2023-05-08T08:34:33.466Z,127.56
2023-05-08T08:35:33.456Z,124.34
2023-05-08T08:36:33.473Z,129.56
2023-05-08T08:37:33.472Z,121.12
2023-05-08T08:38:33.500Z,129.43
2023-05-08T08:39:33.491Z,128.83
2023-05-08T08:40:33.500Z,128.47
2023-05-08T08:41:33.514Z,136.57
2023-05-08T08:42:33.525Z,126.34
2023-05-08T08:43:33.791Z,134.81
2023-05-08T08:44:33.527Z,148.00
2023-05-08T08:45:33.547Z,137.02
2023-05-08T08:46:33.568Z,142.88
2023-05-08T08:47:33.628Z,145.98
2023-05-08T08:48:33.745Z,138.46
2023-05-08T08:49:33.633Z,136.22
2023-05-08T08:50:33.656Z,133.76
2023-05-08T08:51:33.656Z,137.00
2023-05-08T08:52:33.624Z,128.43
2023-05-08T08:53:33.678Z,126.37
2023-05-08T08:54:33.665Z,130.16
2023-05-08T08:55:33.714Z,122.58
2023-05-08T08:56:33.696Z,131.17
2023-05-08T08:57:33.690Z,128.93
2023-05-08T08:58:33.691Z,120.89
2023-05-08T08:59:33.643Z,135.21
2023-05-08T09:00:33.636Z,133.35
2023-05-08T09:01:33.726Z,136.89
2023-05-08T09:02:33.866Z,131.83
2023-05-08T09:03:33.983Z,136.72
2023-05-08T09:04:33.806Z,137.82
2023-05-08T09:05:33.754Z,143.85
2023-05-08T09:06:33.709Z,139.94
2023-05-08T09:07:33.779Z,141.42
2023-05-08T09:08:33.794Z,139.88
2023-05-08T09:09:33.787Z,140.51
2023-05-08T09:10:33.805Z,141.19
2023-05-08T09:11:33.722Z,145.50
2023-05-08T09:12:33.793Z,143.64
2023-05-08T09:13:33.902Z,145.46
2023-05-08T09:14:33.751Z,142.53
2023-05-08T09:15:33.742Z,135.30
2023-05-08T09:16:33.795Z,144.64
2023-05-08T09:17:33.800Z,144.19
2023-05-08T09:18:33.790Z,146.67
2023-05-08T09:19:33.771Z,143.83
2023-05-08T09:20:33.900Z,139.89
2023-05-08T09:21:33.813Z,143.88
2023-05-08T09:22:33.802Z,143.83
2023-05-08T09:23:33.916Z,149.39
2023-05-08T09:24:33.830Z,145.57
2023-05-08T09:25:33.824Z,146.81
2023-05-08T09:26:33.853Z,151.17
2023-05-08T09:27:33.837Z,147.34
2023-05-08T09:28:34.302Z,153.22
2023-05-08T09:29:33.920Z,160.60
2023-05-08T09:30:33.916Z,160.95
2023-05-08T09:31:34.020Z,160.73
2023-05-08T09:32:34.004Z,162.25
2023-05-08T09:33:34.033Z,159.52
2023-05-08T09:34:34.069Z,158.53
2023-05-08T09:35:34.099Z,163.72
2023-05-08T09:36:34.245Z,164.53
2023-05-08T09:37:34.222Z,163.57
2023-05-08T09:38:34.301Z,164.04
2023-05-08T09:39:34.316Z,161.10
2023-05-08T09:40:34.334Z,162.46
2023-05-08T09:41:34.404Z,163.31
2023-05-08T09:42:34.491Z,166.69
2023-05-08T09:43:34.525Z,171.55
2023-05-08T09:44:34.586Z,170.78
2023-05-08T09:45:34.671Z,175.08
2023-05-08T09:46:34.748Z,171.93
2023-05-08T09:47:34.780Z,167.86
2023-05-08T09:48:35.305Z,166.44
2023-05-08T09:49:34.849Z,171.33
2023-05-08T09:50:34.958Z,163.69
2023-05-08T09:51:34.971Z,168.83
2023-05-08T09:52:35.104Z,167.44
2023-05-08T09:53:35.813Z,165.96
2023-05-08T09:54:35.086Z,159.65
2023-05-08T09:55:35.131Z,157.36
2023-05-08T09:56:35.169Z,162.24
2023-05-08T09:57:35.266Z,180.24
2023-05-08T09:58:35.317Z,187.65
2023-05-08T09:59:35.322Z,191.22
2023-05-08T10:00:35.381Z,194.26
2023-05-08T10:01:35.562Z,199.85
2023-05-08T10:02:35.466Z,204.94
2023-05-08T10:03:35.491Z,200.66
2023-05-08T10:04:35.482Z,214.44
2023-05-08T10:05:35.500Z,215.29
2023-05-08T10:06:35.494Z,227.01
2023-05-08T10:07:35.481Z,229.51
2023-05-08T10:08:35.555Z,224.21
2023-05-08T10:09:49.818Z,231.92
2023-05-08T10:10:36.539Z,231.26
2023-05-08T10:11:35.473Z,234.73
2023-05-08T10:12:35.454Z,237.70
2023-05-08T10:13:35.496Z,240.80
2023-05-08T10:14:35.481Z,246.84
2023-05-08T10:15:36.474Z,232.95
2023-05-08T10:16:35.452Z,235.73
2023-05-08T10:17:35.425Z,246.84
2023-05-08T10:18:35.457Z,254.95
2023-05-08T10:19:35.482Z,263.13
2023-05-08T10:20:35.405Z,249.83
2023-05-08T10:21:35.414Z,250.68
2023-05-08T10:22:35.422Z,246.56
2023-05-08T10:23:35.388Z,244.98
2023-05-08T10:24:35.472Z,237.08
2023-05-08T10:25:35.400Z,252.20
2023-05-08T10:26:35.380Z,244.23
2023-05-08T10:27:36.298Z,246.45
2023-05-08T10:28:35.382Z,244.60
2023-05-08T10:29:35.373Z,235.79
2023-05-08T10:30:35.335Z,244.95
2023-05-08T10:31:35.481Z,234.46
2023-05-08T10:32:35.420Z,227.34
2023-05-08T10:33:35.840Z,222.11
2023-05-08T10:34:35.326Z,214.52
2023-05-08T10:35:35.324Z,211.27
2023-05-08T10:36:35.294Z,221.41
2023-05-08T10:37:35.324Z,221.62
2023-05-08T10:38:35.343Z,223.31
2023-05-08T10:39:35.300Z,225.10
2023-05-08T10:40:35.432Z,217.23
2023-05-08T10:41:35.267Z,215.53
2023-05-08T10:42:35.338Z,214.11
2023-05-08T10:43:35.277Z,212.96
2023-05-08T10:44:35.263Z,207.80
2023-05-08T10:45:35.271Z,209.76
2023-05-08T10:46:35.332Z,210.53
2023-05-08T10:47:35.267Z,209.14
2023-05-08T10:48:35.259Z,204.57
2023-05-08T10:49:35.217Z,205.33
2023-05-08T10:50:35.335Z,200.15
2023-05-08T10:51:35.210Z,196.63
2023-05-08T10:52:35.247Z,189.09
2023-05-08T10:53:35.321Z,182.02
2023-05-08T10:54:35.172Z,174.09
2023-05-08T10:55:35.213Z,173.62
2023-05-08T10:56:35.202Z,174.89
2023-05-08T10:57:35.195Z,178.16
2023-05-08T10:58:35.227Z,172.19
2023-05-08T10:59:35.258Z,181.77
2023-05-08T11:00:35.235Z,184.19
2023-05-08T11:01:35.251Z,185.95
2023-05-08T11:02:35.308Z,190.33
2023-05-08T11:03:35.336Z,184.17
2023-05-08T11:04:35.429Z,184.28
2023-05-08T11:05:35.379Z,185.23
2023-05-08T11:06:35.377Z,182.75
2023-05-08T11:07:35.398Z,176.58
2023-05-08T11:08:35.496Z,168.04
2023-05-08T11:09:35.500Z,170.06
2023-05-08T11:10:35.559Z,173.89
2023-05-08T11:11:35.559Z,172.20
2023-05-08T11:12:35.629Z,170.18
2023-05-08T11:13:35.669Z,184.59
2023-05-08T11:14:35.735Z,183.25
2023-05-08T11:15:35.788Z,176.63
2023-05-08T11:16:35.914Z,167.82
2023-05-08T11:17:35.896Z,168.33
2023-05-08T11:18:48.620Z,166.31
2023-05-08T11:19:36.843Z,166.47
2023-05-08T11:20:35.872Z,164.77
2023-05-08T11:21:35.906Z,163.73
2023-05-08T11:22:35.940Z,150.41
2023-05-08T11:23:36.344Z,151.82
2023-05-08T11:24:36.044Z,158.70
2023-05-08T11:25:35.969Z,148.40
2023-05-08T11:26:36.036Z,149.40
2023-05-08T11:27:36.023Z,151.40
2023-05-08T11:28:36.349Z,165.37
2023-05-08T11:29:36.093Z,161.77
2023-05-08T11:30:36.100Z,172.98
2023-05-08T11:31:36.249Z,174.84
2023-05-08T11:32:36.273Z,171.79
2023-05-08T11:33:36.362Z,180.19
2023-05-08T11:34:36.381Z,178.70
2023-05-08T11:35:36.435Z,173.60
2023-05-08T11:36:36.553Z,167.10
2023-05-08T11:37:36.608Z,171.61
2023-05-08T11:38:36.710Z,173.88
2023-05-08T11:39:36.727Z,173.62
2023-05-08T11:40:36.764Z,169.05
2023-05-08T11:41:36.839Z,165.23
2023-05-08T11:42:36.902Z,157.60
2023-05-08T11:43:36.950Z,152.48
2023-05-08T11:44:37.040Z,148.81
2023-05-08T11:45:36.997Z,149.60
2023-05-08T11:46:37.113Z,147.41
2023-05-08T11:47:37.110Z,144.56
2023-05-08T11:48:37.145Z,147.02
2023-05-08T11:49:37.147Z,143.47
2023-05-08T11:50:37.227Z,144.52
2023-05-08T11:51:37.216Z,142.38
2023-05-08T11:52:37.162Z,142.61
2023-05-08T11:53:37.185Z,137.07
2023-05-08T11:54:37.209Z,140.16
2023-05-08T11:55:37.138Z,137.25
2023-05-08T11:56:37.164Z,130.62
2023-05-08T11:57:37.150Z,132.29
2023-05-08T11:58:37.206Z,134.86
2023-05-08T11:59:37.188Z,127.47
2023-05-08T12:00:37.198Z,134.09
2023-05-08T12:01:37.190Z,126.55
2023-05-08T12:02:37.267Z,127.20
2023-05-08T12:03:37.262Z,123.25
2023-05-08T12:04:37.204Z,120.49
2023-05-08T12:05:37.216Z,118.80
2023-05-08T12:06:37.205Z,124.97
2023-05-08T12:07:37.217Z,124.91
2023-05-08T12:08:37.371Z,118.45
2023-05-08T12:09:37.178Z,111.79
2023-05-08T12:10:37.250Z,111.14
2023-05-08T12:11:37.195Z,117.81
2023-05-08T12:12:37.206Z,117.06
2023-05-08T12:13:37.275Z,108.94
2023-05-08T12:14:37.271Z,105.37
2023-05-08T12:15:37.226Z,109.59
2023-05-08T12:16:37.229Z,126.22
2023-05-08T12:17:37.296Z,122.36
2023-05-08T12:18:39.681Z,118.33
2023-05-08T12:19:37.451Z,115.58
2023-05-08T12:20:37.420Z,120.47
2023-05-08T12:21:37.446Z,116.21
2023-05-08T12:22:37.479Z,128.39
2023-05-08T12:23:37.449Z,133.57
2023-05-08T12:24:37.474Z,153.27
2023-05-08T12:25:37.474Z,143.73
2023-05-08T12:26:37.588Z,139.82
2023-05-08T12:27:37.503Z,145.87
2023-05-08T12:28:37.486Z,130.58
2023-05-08T12:29:37.466Z,143.55
2023-05-08T12:30:37.495Z,151.79
2023-05-08T12:31:37.603Z,155.57
2023-05-08T12:32:37.573Z,147.52
2023-05-08T12:33:37.909Z,140.49
2023-05-08T12:34:37.723Z,154.72
2023-05-08T12:35:37.755Z,145.02
2023-05-08T12:36:37.806Z,150.04
2023-05-08T12:37:37.874Z,150.16
2023-05-08T12:38:37.938Z,151.73
2023-05-08T12:39:38.022Z,153.54
2023-05-08T12:40:38.065Z,155.13